• Join FlightAware (Why Join?)
  • Login
  • US Flag 
12:18PM EDT


 

Airport Tracker/Info


-or-


 

Live Flight TrackerFlight Track Log ✈ N589H ✈ 31 Mar 2014 ✈ TUPJ / EIS - KFLL

Flight Track Log - Related Links

Times and Time Zones

All times are in EDT time to prevent confusion due to time zone crossing. See the N589H flight status page for this flight to view local times or setup timezone preferences in your user account.

Time Position Orientation Groundspeed Altitude Reporting Facility
EDT Latitude Longitude Course Direction KTS MPH feet Rate Location/Type
04:18PM 18.5167 -64.5333 285° West 230 265 3,900  Level San Juan Center
04:19PM 18.5333 -64.6000 285° West 260 299 3,900  Level San Juan Center
04:20PM 18.5667 -64.6667 298° West 270 311 3,900 300 Level San Juan Center
04:21PM 18.6000 -64.7500 293° West 280 322 4,500 1,200 Climbing San Juan Center
04:22PM 18.6167 -64.8167 285° West 250 288 6,400 1,980 Climbing San Juan Center
04:23PM 18.6500 -64.8833 298° West 220 253 8,500 2,040 Climbing San Juan Center
04:24PM 18.6667 -64.9333 289° West 210 242 10,600 1,920 Climbing San Juan Center
04:25PM 18.7000 -64.9833 305° West 210 242 12,400 1,560 Climbing San Juan Center
04:26PM 18.7333 -65.0500 298° West 230 265 13,800 1,380 Climbing San Juan Center
04:27PM 18.7667 -65.1000 305° West 240 276 15,300 1,500 Climbing San Juan Center
04:28PM 18.8167 -65.1667 308° West 250 288 16,800 1,500 Climbing San Juan Center
04:29PM 18.8500 -65.2333 298° West 250 288 18,400 1,440 Climbing San Juan Center
04:30PM 18.8833 -65.2833 305° West 250 288 19,800 1,380 Climbing San Juan Center
04:31PM 18.9167 -65.3500 298° West 260 299 21,200 1,200 Climbing San Juan Center
04:32PM 18.9500 -65.4167 298° West 260 299 22,300 1,020 Climbing San Juan Center
04:33PM 19.0000 -65.5000 302° West 280 322 23,300 960 Climbing San Juan Center
04:34PM 19.0333 -65.5667 298° West 280 322 24,300 1,020 Climbing San Juan Center
04:35PM 19.0833 -65.6333 308° West 290 334 25,400 1,020 Climbing San Juan Center
04:36PM 19.1333 -65.7167 302° West 290 334 26,400 960 Climbing San Juan Center
04:37PM 19.1500 -65.7667 289° West 280 322 27,400 660 Climbing San Juan Center
04:38PM 19.2000 -65.8333 308° West 280 322 27,800 480 Climbing San Juan Center
04:39PM 19.2500 -65.9167 302° West 300 345 28,400 540 Climbing San Juan Center
04:40PM 19.2833 -66.0000 293° West 310 357 28,900 480 Climbing San Juan Center
04:41PM 19.3333 -66.0667 308° West 310 357 29,400 480 Climbing San Juan Center
04:42PM 19.3833 -66.1500 302° West 320 368 29,900 480 Climbing San Juan Center
04:43PM 19.4167 -66.2333 293° West 320 368 30,400 540 Climbing San Juan Center
04:44PM 19.4833 -66.3333 305° West 310 357 31,000 540 Climbing San Juan Center
04:45PM 19.5167 -66.4000 298° West 300 345 31,500 480 Climbing San Juan Center
04:46PM 19.5667 -66.4833 302° West 310 357 32,000 240 Climbing San Juan Center
04:47PM 19.6167 -66.5667 303° West 310 357 32,000  Level San Juan Center
04:48PM 19.6500 -66.6333 298° West 320 368 32,000  Level San Juan Center
04:49PM 19.7000 -66.7167 303° West 330 380 32,000  Level San Juan Center
04:50PM 19.7500 -66.8167 298° West 330 380 32,000  Level San Juan Center
04:51PM 19.8000 -66.8833 309° West 330 380 32,000  Level San Juan Center
04:52PM 19.8500 -66.9667 303° West 330 380 32,000  Level San Juan Center
04:53PM 19.8833 -67.0500 293° West 310 357 32,000  Level San Juan Center
04:54PM 19.9333 -67.1333 303° West 320 368 32,000  Level San Juan Center
04:55PM 19.9833 -67.2167 303° West 320 368 32,000  Level San Juan Center
04:56PM 20.0333 -67.3000 303° West 320 368 32,000  Level San Juan Center
04:57PM 20.0667 -67.3833 293° West 320 368 32,000  Level San Juan Center
04:58PM 20.1167 -67.4667 303° West 320 368 32,000  Level San Juan Center
04:59PM 20.1667 -67.5333 309° West 320 368 32,000  Level San Juan Center
05:00PM 20.2167 -67.6167 303° West 310 357 32,000  Level San Juan Center
05:01PM 20.2667 -67.7000 303° West 320 368 32,000  Level San Juan Center
05:02PM 20.3000 -67.7833 293° West 310 357 32,000  Level San Juan Center
05:03PM 20.3167 -67.8667 282° West 310 357 32,000  Level San Juan Center
05:04PM 20.3500 -67.9667 290° West 320 368 32,000  Level San Juan Center
05:05PM 20.3833 -68.0500 293° West 320 368 32,000  Level San Juan Center
05:06PM 20.4194 -68.1369 294° West 318 366 32,000  Level Miami Center
05:07PM 20.4553 -68.2228 294° West 341 392 32,000  Level Miami Center
05:08PM 20.4892 -68.3092 293° West 335 386 32,000  Level Miami Center
05:09PM 20.5394 -68.3900 304° West 329 379 32,000  Level Miami Center
05:10PM 20.5767 -68.4628 299° West 323 372 32,000  Level Miami Center
05:11PM 20.6247 -68.5417 303° West 323 372 32,000  Level Miami Center
05:12PM 20.6667 -68.6253 298° West 323 372 32,000  Level Miami Center
05:13PM 20.7147 -68.7064 302° West 323 372 32,000  Level Miami Center
05:14PM 20.7625 -68.7856 303° West 323 372 32,000  Level Miami Center
05:15PM 20.8086 -68.8692 301° West 323 372 32,000  Level Miami Center
05:16PM 20.8522 -68.9508 300° West 318 366 32,000  Level Miami Center
05:17PM 20.8961 -69.0325 300° West 318 366 32,000  Level Miami Center
05:18PM 20.9439 -69.1139 302° West 318 366 32,000  Level Miami Center
05:19PM 20.9875 -69.1958 300° West 318 366 32,000  Level Miami Center
05:20PM 21.0333 -69.2797 300° West 318 366 32,000  Level Miami Center
05:21PM 21.0769 -69.3594 300° West 318 366 32,000  Level Miami Center
05:22PM 21.1225 -69.4411 301° West 318 366 32,000  Level Miami Center
05:23PM 21.1681 -69.5208 302° West 318 366 32,000  Level Miami Center
05:24PM 21.2114 -69.6008 300° West 318 366 32,000  Level Miami Center
05:25PM 21.2569 -69.6850 300° West 318 366 32,000  Level Miami Center
05:26PM 21.3003 -69.7628 301° West 318 366 32,000  Level Miami Center
05:27PM 21.3456 -69.8450 301° West 318 366 32,000  Level Miami Center
05:28PM 21.3847 -69.9231 298° West 313 360 32,000  Level Miami Center
05:29PM 21.4319 -70.0028 302° West 313 360 32,000  Level Miami Center
05:30PM 21.4753 -70.0853 299° West 313 360 32,000  Level Miami Center
05:31PM 21.5183 -70.1633 301° West 313 360 32,000  Level Miami Center
05:32PM 21.5656 -70.2456 302° West 313 360 32,000  Level Miami Center
05:33PM 21.6067 -70.3261 299° West 313 360 32,000  Level Miami Center
05:34PM 21.6517 -70.4064 301° West 313 360 32,000  Level Miami Center
05:35PM 21.6947 -70.4847 301° West 313 360 32,000  Level Miami Center
05:36PM 21.7378 -70.5675 299° West 313 360 32,000  Level Miami Center
05:37PM 21.7806 -70.6458 300° West 313 360 32,000  Level Miami Center
05:38PM 21.8256 -70.7264 301° West 308 354 32,000  Level Miami Center
05:39PM 21.8683 -70.8069 300° West 308 354 32,000  Level Miami Center
05:40PM 21.9156 -70.8944 300° West 308 354 32,000  Level Miami Center
05:41PM 21.9583 -70.9750 300° West 308 354 32,000  Level Miami Center
05:42PM 22.0011 -71.0536 300° West 308 354 32,000  Level Miami Center
05:43PM 22.0458 -71.1322 302° West 308 354 32,000  Level Miami Center
05:44PM 22.0883 -71.2133 299° West 303 349 32,000  Level Miami Center
05:45PM 22.1311 -71.2967 299° West 308 354 32,000  Level Miami Center
05:46PM 22.1736 -71.3731 301° West 303 349 32,000  Level Miami Center
05:47PM 22.2161 -71.4544 299° West 303 349 32,000  Level Miami Center
05:48PM 22.2583 -71.5311 301° West 303 349 32,000  Level Miami Center
05:49PM 22.3011 -71.6144 299° West 303 349 32,000  Level Miami Center
05:50PM 22.3411 -71.6914 299° West 303 349 32,000  Level Miami Center
05:51PM 22.3856 -71.7728 301° West 303 349 32,000  Level Miami Center
05:52PM 22.4300 -71.8517 301° West 303 349 32,000  Level Miami Center
05:53PM 22.4722 -71.9311 300° West 303 349 32,000  Level Miami Center
05:54PM 22.5125 -72.0125 298° West 303 349 32,000  Level Miami Center
05:55PM 22.5567 -72.0919 301° West 303 349 32,000  Level Miami Center
05:56PM 22.5989 -72.1736 299° West 303 349 32,000  Level Miami Center
05:57PM 22.6369 -72.2553 297° West 303 349 32,000  Level Miami Center
05:58PM 22.6811 -72.3347 301° West 303 349 32,000  Level Miami Center
05:59PM 22.7231 -72.4119 301° West 303 349 32,000  Level Miami Center
06:00PM 22.7650 -72.4917 300° West 303 349 32,000  Level Miami Center
06:02PM 22.8469 -72.6533 299° West 303 349 32,000  Level Miami Center
06:03PM 22.8950 -72.7261 306° West 303 349 32,000  Level Miami Center
06:04PM 22.9328 -72.8083 297° West 303 349 32,000  Level Miami Center
06:05PM 22.9725 -72.8883 298° West 303 349 32,000  Level Miami Center
06:06PM 23.0075 -72.9594 298° West 303 349 32,000  Level Miami Center
06:07PM 23.0556 -73.0414 303° West 310 357 32,000  Level Miami Center
06:08PM 23.0953 -73.1217 298° West 304 350 32,000  Level Miami Center
06:09PM 23.1286 -73.2019 294° West 304 350 32,000  Level Miami Center
06:10PM 23.1764 -73.2794 304° West 304 350 32,000  Level Miami Center
06:11PM 23.2158 -73.3597 298° West 304 350 32,000  Level Miami Center
06:12PM 23.2533 -73.4403 297° West 304 350 32,000  Level Miami Center
06:13PM 23.2989 -73.5181 303° West 304 350 32,000  Level Miami Center
06:14PM 23.3403 -73.6008 299° West 304 350 32,000  Level Miami Center
06:15PM 23.3797 -73.6789 299° West 304 350 32,000  Level Miami Center
06:16PM 23.4211 -73.7661 297° West 304 350 32,000  Level Miami Center
06:17PM 23.4625 -73.8444 300° West 304 350 32,000  Level Miami Center
06:18PM 23.5036 -73.9228 300° West 304 350 32,000  Level Miami Center
06:19PM 23.5450 -74.0011 300° West 304 350 32,000  Level Miami Center
06:20PM 23.5819 -74.0794 297° West 304 350 32,000  Level Miami Center
06:21PM 23.6231 -74.1581 300° West 304 350 32,000  Level Miami Center
06:22PM 23.6664 -74.2364 301° West 304 350 32,000  Level Miami Center
06:23PM 23.7011 -74.3175 295° West 304 350 32,000  Level Miami Center
06:24PM 23.7442 -74.3961 301° West 304 350 32,000  Level Miami Center
06:25PM 23.7808 -74.4703 298° West 304 350 32,000  Level Miami Center
06:26PM 23.8219 -74.5489 300° West 299 344 32,000  Level Miami Center
06:27PM 23.8586 -74.6278 297° West 299 344 32,000  Level Miami Center
06:28PM 23.8994 -74.7067 300° West 299 344 32,000  Level Miami Center
06:29PM 23.9381 -74.7808 300° West 299 344 32,000  Level Miami Center
06:30PM 23.9769 -74.8597 298° West 299 344 32,000  Level Miami Center
06:31PM 24.0156 -74.9389 298° West 299 344 32,000  Level Miami Center
06:32PM 24.0519 -75.0156 297° West 299 344 32,000  Level Miami Center
06:33PM 24.0925 -75.0903 301° West 294 338 32,000  Level Miami Center
06:34PM 24.1311 -75.1669 299° West 294 338 32,000  Level Miami Center
06:35PM 24.1675 -75.2464 297° West 294 338 32,000  Level Miami Center
06:36PM 24.2081 -75.3256 299° West 294 338 32,000  Level Miami Center
06:37PM 24.2464 -75.4025 299° West 294 338 32,000  Level Miami Center
06:38PM 24.2828 -75.4819 297° West 289 333 32,000  Level Miami Center
06:39PM 24.3231 -75.5589 300° West 289 333 32,000  Level Miami Center
06:40PM 24.3614 -75.6406 297° West 289 333 32,000  Level Miami Center
06:41PM 24.3997 -75.7156 299° West 289 333 32,000  Level Miami Center
06:42PM 24.4358 -75.7953 296° West 289 333 32,000  Level Miami Center
06:43PM 24.4739 -75.8725 298° West 289 333 32,000  Level Miami Center
06:44PM 24.5142 -75.9544 298° West 289 333 32,000  Level Miami Center
06:45PM 24.5522 -76.0317 298° West 294 338 32,000  Level Miami Center
06:46PM 24.5903 -76.1139 297° West 294 338 32,000  Level Miami Center
06:47PM 24.6303 -76.1914 300° West 300 345 32,000  Level Miami Center
06:48PM 24.6622 -76.2756 293° West 300 345 32,000  Level Miami Center
06:49PM 24.6917 -76.3556 292° West 295 339 32,000  Level Miami Center
06:50PM 24.7233 -76.4425 292° West 295 339 32,000  Level Miami Center
06:51PM 24.7528 -76.5269 291° West 295 339 32,000  Level Miami Center
06:52PM 24.7883 -76.6094 295° West 295 339 32,000  Level Miami Center
06:53PM 24.8158 -76.6986 289° West 295 339 32,000  Level Miami Center
06:54PM 24.8514 -76.7833 295° West 295 339 32,000  Level Miami Center
06:55PM 24.8806 -76.8703 290° West 295 339 32,000  Level Miami Center
06:56PM 24.9119 -76.9550 292° West 295 339 32,000  Level Miami Center
06:57PM 24.9433 -77.0400 292° West 295 339 32,000  Level Miami Center
06:58PM 24.9725 -77.1247 291° West 295 339 32,000  Level Miami Center
06:59PM 25.0036 -77.2075 293° West 295 339 32,000  Level Miami Center
07:00PM 25.0347 -77.2922 292° West 295 339 32,000  Level Miami Center
07:01PM 25.0594 -77.3636 291° West 295 339 32,000  Level Miami Center
07:02PM 25.0947 -77.4692 290° West 301 346 32,000  Level Miami Center
07:03PM 25.1236 -77.5450 293° West 306 352 32,000  Level Miami Center
07:04PM 25.1567 -77.6325 293° West 311 358 32,000  Level Miami Center
07:05PM 25.1856 -77.7153 291° West 306 352 32,000  Level Miami Center
07:06PM 25.2183 -77.8053 292° West 306 352 32,000  Level Miami Center
07:07PM 25.2469 -77.8928 290° West 306 352 32,000  Level Miami Center
07:08PM 25.2778 -77.9803 291° West 311 358 32,000 -360 Level Miami Center
07:09PM 25.3125 -78.0681 294° West 311 358 31,300 -1,380 Descending Miami Center
07:10PM 25.3450 -78.1672 290° West 317 365 29,300 -1,980 Descending Miami Center
07:11PM 25.3817 -78.2711 291° West 342 394 27,400 -1,860 Descending Miami Center
07:12PM 25.4164 -78.3750 290° West 351 404 25,600 -1,800 Descending Miami Center
07:13PM 25.4550 -78.4722 294° West 351 404 23,800 -1,800 Descending Miami Center
07:14PM 25.4831 -78.5669 288° West 341 392 22,100 -1,740 Descending Miami Center
07:15PM 25.5133 -78.6572 290° West 331 381 20,400 -1,740 Descending Miami Center
07:16PM 25.5500 -78.7453 295° West 315 362 18,700 -1,620 Descending Miami Center
07:17PM 25.5739 -78.8353 286° West 310 357 17,200 -1,500 Descending Miami Center
07:18PM 25.6081 -78.9214 294° West 310 357 15,800 -1,560 Descending Miami Center
07:19PM 25.6422 -79.0164 292° West 303 349 14,100 -1,500 Descending Miami Center
07:20PM 25.6725 -79.0953 293° West 298 343 12,800 -1,380 Descending Miami Center
07:21PM 25.6983 -79.1811 288° West 292 336 11,400 -1,380 Descending Miami Center
07:22PM 25.7264 -79.2600 292° West 292 336 10,100 -1,440 Descending Miami Center
07:23PM 25.7500 -79.3389 288° West 292 336 8,600 -1,440 Descending Miami Center
07:24PM 25.7717 -79.4131 288° West 287 330 7,300 -1,440 Descending Miami Center
07:25PM 25.7917 -79.4783 289° West 274 315 6,200 -1,500 Descending Miami Center
07:25PM 25.7994 -79.4992 293° West 282 325 5,800 -1,320 Descending Miami Center
07:26PM 25.8294 -79.5806 292° West 282 325 4,500 -1,380 Descending Miami Center
07:26PM 25.8311 -79.5944 278° West 276 318 4,200 -420 Descending Miami Center
07:27PM 25.8508 -79.6572 289° West 275 316 4,100 -180 Descending Miami Center
07:27PM 25.8586 -79.6919 284° West 264 304 4,000 -120 Descending Miami Center
07:28PM 25.8744 -79.7317 294° West 264 304 4,000 -180 Level Miami Center
07:28PM 25.8764 -79.7503 277° West 250 288 3,900  Descending Miami Center
07:29PM 25.9003 -79.8017 297° West 258 297 4,000  Climbing Miami Center
07:29PM 25.9019 -79.8225 275° West 244 281 3,900  Descending Miami Center
07:30PM 25.9239 -79.8714 297° West 248 285 4,000  Climbing Miami Center
07:30PM 25.9278 -79.8900 283° West 243 280 3,900  Descending Miami Center
07:31PM 25.9497 -79.9439 294° West 248 285 4,000  Climbing Miami Center
07:31PM 25.9553 -79.9717 283° West 243 280 3,900  Descending Miami Center
07:32PM 25.9733 -80.0114 297° West 248 285 4,000  Climbing Miami Center
07:32PM 25.9831 -80.0439 288° West 221 254 3,900  Descending Miami Center
07:33PM 25.9928 -80.0742 290° West 236 272 4,000 -240 Climbing Miami Center
07:33PM 25.9900 -80.1019 264° West 214 246 3,700 -540 Descending Miami Center
07:34PM 25.9933 -80.1392 276° West 219 252 3,500 -600 Descending Miami Center
07:34PM 25.9928 -80.1692 269° West 200 230 3,100 -360 Descending Miami Center
07:36PM 25.9975 -80.2339 275° West 184 212 3,000 -120 Descending Miami Center
07:37PM 26.0006 -80.2872 274° West 177 204 2,900  Descending Miami Center
07:38PM 26.0356 -80.3114 328° Northwest 166 191 3,000 -60 Climbing Miami Center
07:38PM 26.0756 -80.2939 21° North 166 191 2,800 -480 Descending Miami Center
07:39PM 26.0744 -80.2453 91° East 151 174 2,100 -1,020 Descending Miami Center
07:40PM 26.0756 -80.2014 88° East 137 158 800 -1,320 Descending Miami Center
07:43PM 26.0667 -80.1500 90° East  Level FlightAware Approximate